Time;durP1;ratioP1;P1;durP2;ratioP2;P2;SDS_P1;SDS_P2;PMS_P1;PMS_P2;Temp;Humidity;BMP_temperature;BMP_pressure;BME280_temperature;BME280_humidity;BME280_pressure;Samples;Min_cycle;Max_cycle;Signal;HPM_P1;HPM_P2
2023/03/15 00:02:54;;;;;;;;;;;;;;;20.65;51.60;100013.98;2253897;78;50841;-73
2023/03/15 00:05:56;;;;;;;;;;;;;;;20.65;51.56;100015.34;2249070;78;51452;-72
2023/03/15 00:08:58;;;;;;;;;;;;;;;20.63;51.59;100017.92;2219373;78;52272;-73
2023/03/15 00:11:59;;;;;;;;;;;;;;;20.61;51.62;100026.19;2270415;78;51528;-73
2023/03/15 00:15:01;;;;;;;;;;;;;;;20.57;51.67;100027.64;2270403;78;52573;-73
2023/03/15 00:18:02;;;;;;;;;;;;;;;20.53;51.75;100030.42;2257668;78;52026;-74
2023/03/15 00:21:04;;;;;;;;;;;;;;;20.49;51.82;100043.97;2249916;78;51519;-72
2023/03/15 00:24:06;;;;;;;;;;;;;;;20.45;51.91;100052.16;2257548;78;51515;-73
2023/03/15 00:27:07;;;;;;;;;;;;;;;20.43;51.98;100054.22;2253042;78;51419;-73
2023/03/15 00:30:09;;;;;;;;;;;;;;;20.45;51.99;100057.53;2274380;78;50651;-74
2023/03/15 00:33:12;;;;;;;;;;;;;;;20.50;51.90;100058.22;2235699;78;51388;-73
2023/03/15 00:36:14;;;;;;;;;;;;;;;20.56;51.80;100071.69;2287225;78;50344;-73
2023/03/15 00:39:15;;;;;;;;;;;;;;;20.60;51.67;100078.31;2287098;78;51516;-74
2023/03/15 00:42:17;;;;;;;;;;;;;;;20.65;51.56;100085.72;2287354;78;51425;-73
2023/03/15 00:45:19;;;;;;;;;;;;;;;20.64;51.53;100084.08;2262928;78;51145;-74
2023/03/15 00:48:21;;;;;;;;;;;;;;;20.62;51.52;100091.52;2277566;78;51606;-73
2023/03/15 00:51:23;;;;;;;;;;;;;;;20.60;51.55;100093.59;2281160;78;51585;-72
2023/03/15 00:54:24;;;;;;;;;;;;;;;20.55;51.60;100096.93;2279625;78;50285;-73
2023/03/15 00:57:26;;;;;;;;;;;;;;;20.52;51.65;100099.16;2249244;78;50369;-73
2023/03/15 01:00:27;;;;;;;;;;;;;;;20.46;51.75;100095.45;2284848;78;49741;-72
2023/03/15 01:03:29;;;;;;;;;;;;;;;20.42;51.82;100106.30;2286635;78;50683;-74
2023/03/15 01:06:31;;;;;;;;;;;;;;;20.40;51.90;100103.84;2286882;78;51682;-73
2023/03/15 01:09:32;;;;;;;;;;;;;;;20.42;51.90;100107.15;2235733;78;50841;-73
2023/03/15 01:12:34;;;;;;;;;;;;;;;20.47;51.81;100098.95;2279625;78;51571;-73
2023/03/15 01:15:35;;;;;;;;;;;;;;;20.53;51.68;100108.89;2260541;78;51515;-73
2023/03/15 01:18:37;;;;;;;;;;;;;;;20.56;51.59;100113.36;2249502;79;51450;-73
2023/03/15 01:21:39;;;;;;;;;;;;;;;20.57;51.54;100125.74;2242963;78;51707;-73
2023/03/15 01:24:40;;;;;;;;;;;;;;;20.56;51.52;100127.31;2249325;79;50288;-73
2023/03/15 01:27:42;;;;;;;;;;;;;;;20.53;51.53;100130.39;2266673;78;50811;-73
2023/03/15 01:30:50;;;;;;;;;;;;;;;20.49;51.56;100139.89;2286617;78;51543;-73
2023/03/15 01:33:52;;;;;;;;;;;;;;;20.45;51.62;100138.16;2212858;78;52054;-74
2023/03/15 01:36:53;;;;;;;;;;;;;;;20.41;51.68;100142.28;2287269;78;51467;-73
2023/03/15 01:39:55;;;;;;;;;;;;;;;20.37;51.78;100147.74;2266519;78;50290;-74
2023/03/15 01:43:04;;;;;;;;;;;;;;;20.33;51.88;100150.03;2273831;78;50622;-73
2023/03/15 01:46:14;;;;;;;;;;;;;;;20.34;51.91;100149.50;2259433;78;50174;-73
2023/03/15 01:49:27;;;;;;;;;;;;;;;20.38;51.84;100154.79;2274422;78;51557;-72
2023/03/15 01:52:29;;;;;;;;;;;;;;;20.43;51.75;100159.03;2286750;78;50446;-72
2023/03/15 01:55:31;;;;;;;;;;;;;;;20.49;51.58;100161.39;2277663;78;51515;-73
2023/03/15 01:58:33;;;;;;;;;;;;;;;20.54;51.47;100155.73;2248314;79;52470;-72
2023/03/15 02:01:34;;;;;;;;;;;;;;;20.57;51.35;100156.66;2251017;78;51451;-72
2023/03/15 02:04:38;;;;;;;;;;;;;;;20.56;51.33;100156.36;2272854;78;51482;-73
2023/03/15 02:07:39;;;;;;;;;;;;;;;20.53;51.36;100159.44;2249331;79;50339;-73
2023/03/15 02:10:45;;;;;;;;;;;;;;;20.49;51.41;100163.56;2240193;78;50076;-73
2023/03/15 02:13:46;;;;;;;;;;;;;;;20.46;51.47;100162.64;2270414;78;50707;-74
2023/03/15 02:16:48;;;;;;;;;;;;;;;20.43;51.51;100168.44;2270593;77;50292;-72
2023/03/15 02:19:57;;;;;;;;;;;;;;;20.36;51.56;100161.70;2269735;78;50093;-73
2023/03/15 02:23:03;;;;;;;;;;;;;;;20.34;51.69;100180.41;2226034;79;50958;-73
2023/03/15 02:26:06;;;;;;;;;;;;;;;20.35;51.71;100180.73;2261791;78;50317;-73
2023/03/15 02:29:31;;;;;;;;;;;;;;;20.39;51.65;100180.61;2182476;80;50258;-73
2023/03/15 02:32:33;;;;;;;;;;;;;;;20.44;51.54;100186.20;2188002;80;50443;-72
2023/03/15 02:35:34;;;;;;;;;;;;;;;20.50;51.38;100183.19;2187338;80;50067;-73
2023/03/15 02:38:36;;;;;;;;;;;;;;;20.55;51.25;100189.66;2211771;79;51519;-73
2023/03/15 02:41:38;;;;;;;;;;;;;;;20.57;51.17;100199.66;2211697;79;51470;-72
2023/03/15 02:44:41;;;;;;;;;;;;;;;20.56;51.15;100202.05;2234132;78;50407;-72
2023/03/15 02:47:43;;;;;;;;;;;;;;;20.52;51.15;100205.32;2192053;80;52702;-74
2023/03/15 02:50:44;;;;;;;;;;;;;;;20.48;51.21;100214.33;2182735;79;51459;-72
2023/03/15 02:53:46;;;;;;;;;;;;;;;20.45;51.24;100210.71;2280755;77;49905;-72
2023/03/15 02:56:47;;;;;;;;;;;;;;;20.41;51.30;100216.17;2272302;77;50248;-72
2023/03/15 02:59:53;;;;;;;;;;;;;;;20.36;51.39;100223.50;2243605;77;51661;-73
2023/03/15 03:02:55;;;;;;;;;;;;;;;20.33;51.45;100225.78;2276698;77;51584;-72
2023/03/15 03:05:57;;;;;;;;;;;;;;;20.33;51.46;100236.53;2292118;76;50408;-74
2023/03/15 03:08:58;;;;;;;;;;;;;;;20.36;51.44;100233.43;2327633;76;50241;-73
2023/03/15 03:12:00;;;;;;;;;;;;;;;20.42;51.34;100239.31;2274842;76;51703;-73
2023/03/15 03:15:03;;;;;;;;;;;;;;;20.46;51.23;100245.95;2326469;76;50637;-75
2023/03/15 03:18:05;;;;;;;;;;;;;;;20.52;51.11;100242.95;2329673;75;51578;-74
2023/03/15 03:21:06;;;;;;;;;;;;;;;20.52;51.02;100246.46;2309740;76;51449;-74
2023/03/15 03:24:08;;;;;;;;;;;;;;;20.50;51.02;100248.55;2280089;76;50226;-75
2023/03/15 03:27:10;;;;;;;;;;;;;;;20.47;51.00;100250.28;2328182;75;51282;-74
2023/03/15 03:30:12;;;;;;;;;;;;;;;20.45;51.05;100259.09;2307876;76;51431;-73
2023/03/15 03:33:13;;;;;;;;;;;;;;;20.41;51.13;100272.09;2298552;76;51424;-73
2023/03/15 03:36:15;;;;;;;;;;;;;;;20.36;51.17;100267.02;2301844;76;50788;-73
2023/03/15 03:39:17;;;;;;;;;;;;;;;20.32;51.22;100271.13;2326334;75;50350;-73
2023/03/15 03:42:18;;;;;;;;;;;;;;;20.27;51.37;100271.77;2304908;75;50049;-73
2023/03/15 03:45:20;;;;;;;;;;;;;;;20.27;51.39;100271.77;2320778;75;50722;-74
2023/03/15 03:48:21;;;;;;;;;;;;;;;20.31;51.34;100275.69;2311734;75;52424;-73
2023/03/15 03:51:23;;;;;;;;;;;;;;;20.36;51.29;100277.77;2321208;76;51310;-73
2023/03/15 03:54:24;;;;;;;;;;;;;;;20.39;51.16;100284.89;2321321;76;51499;-73
2023/03/15 03:57:26;;;;;;;;;;;;;;;20.45;51.03;100288.13;2314933;75;51530;-73
2023/03/15 04:00:28;;;;;;;;;;;;;;;20.48;50.94;100293.61;2293442;76;52277;-74
2023/03/15 04:03:29;;;;;;;;;;;;;;;20.49;50.92;100298.46;2293530;76;51410;-72
2023/03/15 04:06:31;;;;;;;;;;;;;;;20.46;50.92;100302.39;2293833;76;52159;-73
2023/03/15 04:09:36;;;;;;;;;;;;;;;20.43;50.95;100298.77;2301094;75;51369;-73
2023/03/15 04:12:36;;;;;;;;;;;;;;;20.39;50.97;100302.88;2358741;75;22428;-73
2023/03/15 04:15:38;;;;;;;;;;;;;;;20.35;51.04;100307.03;2332867;75;50709;-73
2023/03/15 04:18:39;;;;;;;;;;;;;;;20.31;51.11;100311.95;2347797;75;50345;-73
2023/03/15 04:21:46;;;;;;;;;;;;;;;20.26;51.18;100317.63;2344837;75;51509;-73
2023/03/15 04:24:44;;;;;;;;;;;;;;;20.24;51.25;100323.19;2333137;75;22288;-73
2023/03/15 04:27:57;;;;;;;;;;;;;;;20.27;51.24;100319.27;2345266;75;51289;-73
2023/03/15 04:30:49;;;;;;;;;;;;;;;20.31;51.17;100324.05;2331042;75;25374;-73
2023/03/15 04:33:50;;;;;;;;;;;;;;;20.36;51.04;100328.30;2326258;76;51575;-72
2023/03/15 04:36:53;;;;;;;;;;;;;;;20.42;50.92;100328.00;2298056;76;52346;-73
2023/03/15 04:39:55;;;;;;;;;;;;;;;20.47;50.82;100333.59;2326136;76;50690;-73
2023/03/15 04:42:56;;;;;;;;;;;;;;;20.49;50.73;100332.88;2326472;76;51445;-72
2023/03/15 04:45:58;;;;;;;;;;;;;;;20.49;50.66;100335.57;2299455;76;51444;-73
2023/03/15 04:49:00;;;;;;;;;;;;;;;20.47;50.67;100338.97;2273178;76;52383;-73
2023/03/15 04:52:02;;;;;;;;;;;;;;;20.43;50.73;100335.05;2333156;75;50335;-73
2023/03/15 04:55:03;;;;;;;;;;;;;;;20.39;50.80;100337.81;2320534;75;50743;-73
2023/03/15 04:58:05;;;;;;;;;;;;;;;20.35;50.86;100340.09;2309013;76;49531;-73
2023/03/15 05:01:07;;;;;;;;;;;;;;;20.30;50.95;100348.45;2286596;75;51041;-74
2023/03/15 05:04:08;;;;;;;;;;;;;;;20.26;51.05;100353.38;2322946;76;50674;-73
2023/03/15 05:07:10;;;;;;;;;;;;;;;20.25;51.11;100359.80;2345265;75;51406;-74
2023/03/15 05:10:11;;;;;;;;;;;;;;;20.28;51.06;100363.41;2331466;75;51491;-72
2023/03/15 05:13:13;;;;;;;;;;;;;;;20.33;50.94;100370.88;2320147;75;51738;-72
2023/03/15 05:16:15;;;;;;;;;;;;;;;20.38;50.86;100375.13;2363058;75;50630;-72
2023/03/15 05:19:16;;;;;;;;;;;;;;;20.42;50.74;100371.84;2323899;75;50636;-71
2023/03/15 05:22:18;;;;;;;;;;;;;;;20.50;50.62;100384.28;2313627;75;51397;-71
2023/03/15 05:25:19;;;;;;;;;;;;;;;20.53;50.52;100391.94;2291049;77;50097;-72
2023/03/15 05:28:22;;;;;;;;;;;;;;;20.51;50.49;100395.33;2270612;75;51624;-71
2023/03/15 05:31:24;;;;;;;;;;;;;;;20.49;50.50;100396.05;2344975;75;51548;-73
2023/03/15 05:34:25;;;;;;;;;;;;;;;20.44;50.58;100399.33;2332879;75;51432;-71
2023/03/15 05:37:27;;;;;;;;;;;;;;;20.40;50.65;100405.33;2332590;75;50635;-72
2023/03/15 05:40:29;;;;;;;;;;;;;;;20.36;50.72;100409.44;2310181;75;51357;-74
2023/03/15 05:43:30;;;;;;;;;;;;;;;20.31;50.79;100419.95;2305530;76;51577;-73
2023/03/15 05:46:32;;;;;;;;;;;;;;;20.28;50.90;100424.39;2309374;76;50081;-74
2023/03/15 05:49:33;;;;;;;;;;;;;;;20.28;50.96;100429.24;2309154;76;50291;-73
2023/03/15 05:52:35;;;;;;;;;;;;;;;20.31;50.94;100428.02;2287214;75;51735;-74
2023/03/15 05:55:37;;;;;;;;;;;;;;;20.36;50.89;100432.28;2304936;76;50744;-73
2023/03/15 05:58:39;;;;;;;;;;;;;;;20.41;50.81;100439.22;2321215;75;50004;-74
2023/03/15 06:01:40;;;;;;;;;;;;;;;20.45;50.75;100445.34;2321182;76;50402;-75
2023/03/15 06:04:42;;;;;;;;;;;;;;;20.52;50.66;100447.22;2290761;75;51194;-75
2023/03/15 06:07:45;;;;;;;;;;;;;;;20.53;50.62;100461.00;2330613;76;51494;-74
2023/03/15 06:10:46;;;;;;;;;;;;;;;20.51;50.65;100464.39;2306655;76;50523;-74
2023/03/15 06:13:48;;;;;;;;;;;;;;;20.47;50.72;100473.88;2320688;76;51421;-74
2023/03/15 06:16:49;;;;;;;;;;;;;;;20.43;50.79;100478.30;2283273;76;50054;-74
2023/03/15 06:19:51;;;;;;;;;;;;;;;20.40;50.86;100482.75;2321151;76;51408;-73
2023/03/15 06:22:53;;;;;;;;;;;;;;;20.36;50.97;100495.42;2309126;76;51544;-73
2023/03/15 06:25:54;;;;;;;;;;;;;;;20.32;51.03;100496.84;2323078;75;50721;-74
2023/03/15 06:28:56;;;;;;;;;;;;;;;20.31;51.11;100505.94;2319255;76;52529;-74
2023/03/15 06:31:58;;;;;;;;;;;;;;;20.33;51.07;100508.74;2335719;75;51656;-73
2023/03/15 06:34:59;;;;;;;;;;;;;;;20.38;51.01;100522.94;2327881;75;51491;-74
2023/03/15 06:38:01;;;;;;;;;;;;;;;20.44;51.14;100521.61;2317867;76;50288;-74
2023/03/15 06:41:04;;;;;;;;;;;;;;;20.49;51.09;100519.67;2287952;77;50091;-75
2023/03/15 06:44:05;;;;;;;;;;;;;;;20.54;51.10;100536.07;2291758;76;51528;-73
2023/03/15 06:47:07;;;;;;;;;;;;;;;20.54;51.40;100537.42;2306180;77;51607;-74
2023/03/15 06:50:10;;;;;;;;;;;;;;;20.55;51.40;100542.27;2317961;75;52312;-75
2023/03/15 06:53:12;;;;;;;;;;;;;;;20.49;51.51;100543.87;2320302;76;52507;-74
2023/03/15 06:56:13;;;;;;;;;;;;;;;20.44;51.65;100549.01;2316633;75;50265;-73
2023/03/15 06:59:15;;;;;;;;;;;;;;;20.38;51.79;100557.88;2333182;75;50200;-74
2023/03/15 07:02:17;;;;;;;;;;;;;;;20.34;51.89;100553.91;2331749;75;50822;-74
2023/03/15 07:05:18;;;;;;;;;;;;;;;20.35;51.86;100555.59;2312325;76;51461;-74
2023/03/15 07:08:20;;;;;;;;;;;;;;;20.32;52.07;100561.33;2341419;75;50195;-74
2023/03/15 07:11:22;;;;;;;;;;;;;;;20.34;52.00;100568.69;2322273;75;51470;-75
2023/03/15 07:14:23;;;;;;;;;;;;;;;20.38;51.90;100570.79;2315438;75;51486;-74
2023/03/15 07:17:25;;;;;;;;;;;;;;;20.41;51.86;100574.42;2274294;76;51355;-74
2023/03/15 07:20:27;;;;;;;;;;;;;;;20.50;51.75;100575.11;2334249;75;51572;-74
2023/03/15 07:23:28;;;;;;;;;;;;;;;20.55;51.72;100572.70;2317836;76;51407;-74
2023/03/15 07:26:30;;;;;;;;;;;;;;;20.57;51.49;100578.68;2323989;75;50405;-74
2023/03/15 07:29:31;;;;;;;;;;;;;;;20.57;51.41;100571.95;2283060;76;51192;-74
2023/03/15 07:32:33;;;;;;;;;;;;;;;20.54;51.42;100576.39;2300598;76;50071;-74
2023/03/15 07:35:34;;;;;;;;;;;;;;;20.49;51.45;100576.64;2326418;76;50674;-75
2023/03/15 07:38:36;;;;;;;;;;;;;;;20.43;51.58;100574.23;2299117;76;51483;-75
2023/03/15 07:41:38;;;;;;;;;;;;;;;20.40;51.62;100580.84;2285205;75;52343;-75
2023/03/15 07:44:39;;;;;;;;;;;;;;;20.34;51.71;100578.91;2360018;75;51480;-76
2023/03/15 07:47:41;;;;;;;;;;;;;;;20.32;51.75;100582.83;2359037;75;51171;-75
2023/03/15 07:50:42;;;;;;;;;;;;;;;20.30;51.84;100591.62;2332187;75;51325;-75
2023/03/15 07:53:44;;;;;;;;;;;;;;;20.33;51.85;100592.05;2308326;75;50971;-76
2023/03/15 07:56:46;;;;;;;;;;;;;;;20.37;51.76;100595.16;2357192;75;50092;-74
2023/03/15 07:59:48;;;;;;;;;;;;;;;20.43;51.64;100593.05;2328625;75;51362;-75
2023/03/15 08:02:49;;;;;;;;;;;;;;;20.45;51.57;100595.86;2317648;75;51482;-75
2023/03/15 08:05:51;;;;;;;;;;;;;;;20.52;51.43;100607.16;2339718;75;51553;-75
2023/03/15 08:08:52;;;;;;;;;;;;;;;20.53;51.30;100604.28;2320427;75;51299;-75
2023/03/15 08:11:54;;;;;;;;;;;;;;;20.54;51.33;100605.96;2350953;75;50240;-75
2023/03/15 08:14:55;;;;;;;;;;;;;;;20.49;51.34;100613.75;2323908;75;49918;-74
2023/03/15 08:17:58;;;;;;;;;;;;;;;20.45;51.35;100622.73;2267289;76;49625;-75
2023/03/15 08:21:00;;;;;;;;;;;;;;;20.40;51.44;100612.27;2320166;75;51551;-74
2023/03/15 08:24:01;;;;;;;;;;;;;;;20.35;51.47;100618.73;2319134;75;53537;-75
2023/03/15 08:27:03;;;;;;;;;;;;;;;20.31;51.52;100624.99;2340667;75;51419;-75
2023/03/15 08:30:05;;;;;;;;;;;;;;;20.27;51.59;100627.77;2302035;76;50052;-75
2023/03/15 08:33:07;;;;;;;;;;;;;;;20.28;51.70;100625.91;2308906;75;50080;-75
2023/03/15 08:36:09;;;;;;;;;;;;;;;20.33;51.61;100632.88;2339643;75;51518;-74
2023/03/15 08:39:10;;;;;;;;;;;;;;;20.40;51.41;100635.11;2302489;75;50578;-74
2023/03/15 08:42:12;;;;;;;;;;;;;;;20.41;51.47;100647.50;2323332;75;52296;-74
2023/03/15 08:45:14;;;;;;;;;;;;;;;20.47;51.27;100652.61;2319408;75;51454;-74
2023/03/15 08:48:16;;;;;;;;;;;;;;;20.47;51.17;100654.77;2339531;75;50302;-75
2023/03/15 08:51:18;;;;;;;;;;;;;;;20.45;51.16;100656.33;2330363;75;50369;-74
2023/03/15 08:54:20;;;;;;;;;;;;;;;20.42;51.20;100658.07;2293263;76;49481;-74
2023/03/15 08:57:24;;;;;;;;;;;;;;;20.40;51.25;100661.98;2336218;75;51504;-75
2023/03/15 09:00:25;;;;;;;;;;;;;;;20.36;51.31;100667.41;2305436;75;23355;-74
2023/03/15 09:03:28;;;;;;;;;;;;;;;20.32;51.38;100663.44;2290502;75;51751;-75
2023/03/15 09:06:30;;;;;;;;;;;;;;;20.27;51.53;100672.11;2316747;75;51008;-74
2023/03/15 09:09:32;;;;;;;;;;;;;;;20.26;51.57;100674.97;2318298;75;50507;-74
2023/03/15 09:12:34;;;;;;;;;;;;;;;20.25;51.68;100678.17;2330875;75;51540;-74
2023/03/15 09:15:35;;;;;;;;;;;;;;;20.29;51.66;100686.16;2316534;75;50230;-73
2023/03/15 09:18:39;;;;;;;;;;;;;;;20.37;51.47;100697.28;2322006;75;51159;-75
2023/03/15 09:21:40;;;;;;;;;;;;;;;20.40;51.36;100700.95;2344174;75;22184;-73
2023/03/15 09:24:46;;;;;;;;;;;;;;;20.49;51.21;100704.31;2327424;75;51344;-71
2023/03/15 09:27:48;;;;;;;;;;;;;;;20.74;50.59;100701.55;2324965;74;22369;-75
2023/03/15 09:30:54;;;;;;;;;;;;;;;21.06;50.04;100714.05;2300618;75;51132;-75
2023/03/15 09:33:58;;;;;;;;;;;;;;;20.81;46.32;100709.67;2332946;75;22314;-74
2023/03/15 09:37:02;;;;;;;;;;;;;;;19.79;40.82;100719.66;2336168;75;24295;-74
2023/03/15 09:40:07;;;;;;;;;;;;;;;19.74;40.73;100722.08;2340678;75;50302;-74
2023/03/15 09:43:13;;;;;;;;;;;;;;;19.67;40.16;100725.19;2308327;74;50676;-74
2023/03/15 09:46:18;;;;;;;;;;;;;;;19.77;41.66;100727.06;2318689;75;50047;-73
2023/03/15 09:49:27;;;;;;;;;;;;;;;19.78;42.29;100731.42;2325668;75;51516;-73
2023/03/15 09:52:44;;;;;;;;;;;;;;;19.84;42.81;100739.75;2339510;75;51521;-74
2023/03/15 09:55:47;;;;;;;;;;;;;;;19.86;43.26;100744.39;2319383;75;22301;-74
2023/03/15 09:58:52;;;;;;;;;;;;;;;19.93;43.56;100746.13;2328011;75;50308;-74
2023/03/15 10:01:54;;;;;;;;;;;;;;;19.98;43.91;100753.62;2329979;75;23111;-74
2023/03/15 10:05:01;;;;;;;;;;;;;;;20.06;44.05;100762.91;2323809;75;51524;-74
2023/03/15 10:08:04;;;;;;;;;;;;;;;20.12;44.22;100763.51;2313633;75;50384;-73
2023/03/15 10:15:00;;;;;;;;;;;;;;;20.24;44.61;100767.85;2333886;74;22388;-74
2023/03/15 10:18:02;;;;;;;;;;;;;;;20.30;44.80;100767.62;2223180;79;22602;-74
2023/03/15 10:21:06;;;;;;;;;;;;;;;20.38;44.91;100761.59;2203715;79;49933;-73
2023/03/15 10:24:12;;;;;;;;;;;;;;;20.38;45.01;100765.63;2223458;79;50229;-73
2023/03/15 10:27:14;;;;;;;;;;;;;;;20.38;45.18;100764.80;2221520;79;22534;-73
2023/03/15 10:30:20;;;;;;;;;;;;;;;20.34;45.36;100768.37;2225863;79;51554;-73
2023/03/15 10:33:36;;;;;;;;;;;;;;;20.30;45.61;100775.69;2218819;79;22642;-74
2023/03/15 10:36:48;;;;;;;;;;;;;;;20.26;45.81;100770.36;2246287;78;51362;-73
2023/03/15 10:39:52;;;;;;;;;;;;;;;20.20;46.05;100771.44;2208529;79;51541;-74
2023/03/15 10:42:56;;;;;;;;;;;;;;;20.15;46.28;100776.55;2229289;79;50677;-74
2023/03/15 10:46:01;;;;;;;;;;;;;;;20.19;46.41;100781.02;2241318;78;23434;-74
2023/03/15 10:49:13;;;;;;;;;;;;;;;20.25;46.46;100782.97;2230061;79;50821;-73
2023/03/15 10:52:25;;;;;;;;;;;;;;;20.32;46.45;100785.70;2239163;79;50759;-73
2023/03/15 10:55:32;;;;;;;;;;;;;;;20.43;46.02;100790.59;2305886;75;50340;-74
2023/03/15 10:58:41;;;;;;;;;;;;;;;20.44;45.73;100790.38;2310628;75;51441;-75
2023/03/15 11:01:44;;;;;;;;;;;;;;;20.47;45.44;100783.79;2301124;75;51004;-75
2023/03/15 11:04:55;;;;;;;;;;;;;;;20.47;44.96;100790.51;2309825;75;50200;-74
2023/03/15 11:07:57;;;;;;;;;;;;;;;20.42;44.59;100780.36;2327294;75;50285;-74
2023/03/15 11:11:05;;;;;;;;;;;;;;;20.37;44.29;100783.27;2348437;75;50154;-74
2023/03/15 11:14:06;;;;;;;;;;;;;;;20.30;44.15;100783.75;2322597;75;22339;-74
2023/03/15 11:17:12;;;;;;;;;;;;;;;20.23;44.20;100785.83;2344712;75;50633;-74
2023/03/15 11:20:24;;;;;;;;;;;;;;;20.16;44.14;100782.23;2317370;76;22416;-73
2023/03/15 11:23:28;;;;;;;;;;;;;;;20.11;44.16;100783.31;2315150;75;51994;-74
2023/03/15 11:26:33;;;;;;;;;;;;;;;20.07;44.46;100786.08;2307723;75;52490;-74
2023/03/15 11:29:39;;;;;;;;;;;;;;;20.08;44.53;100791.77;2342659;75;22440;-74
2023/03/15 11:32:41;;;;;;;;;;;;;;;20.07;44.71;100779.36;2333098;75;50305;-73
2023/03/15 11:35:46;;;;;;;;;;;;;;;20.08;44.80;100782.87;2323557;75;50099;-74
2023/03/15 11:38:46;;;;;;;;;;;;;;;20.10;44.86;100787.03;2325260;76;22346;-73
2023/03/15 11:41:50;;;;;;;;;;;;;;;20.13;44.95;100790.68;2328162;75;51573;-74
2023/03/15 11:45:26;;;;;;;;;;;;;;;20.19;44.96;100800.69;2339808;75;50267;-73
2023/03/15 11:48:41;;;;;;;;;;;;;;;20.25;44.95;100789.69;2354431;75;22335;-72
2023/03/15 11:51:44;;;;;;;;;;;;;;;20.28;45.02;100805.94;2330574;76;51018;-74
2023/03/15 11:54:47;;;;;;;;;;;;;;;20.34;45.04;100798.45;2336664;75;50664;-73
2023/03/15 11:57:52;;;;;;;;;;;;;;;20.39;45.02;100794.67;2310693;76;50491;-73
2023/03/15 12:00:55;;;;;;;;;;;;;;;20.39;45.03;100801.39;2315866;75;22287;-73
2023/03/15 12:04:15;;;;;;;;;;;;;;;20.39;45.12;100798.19;2339981;75;51577;-73
2023/03/15 12:07:22;;;;;;;;;;;;;;;20.37;45.22;100800.74;2331313;75;23164;-74
2023/03/15 12:10:32;;;;;;;;;;;;;;;20.35;45.33;100797.44;2325895;75;23317;-74
2023/03/15 12:13:39;;;;;;;;;;;;;;;20.32;45.44;100795.97;2314354;76;51047;-73
2023/03/15 12:16:41;;;;;;;;;;;;;;;20.28;45.58;100790.64;2347277;75;22395;-74
2023/03/15 12:19:44;;;;;;;;;;;;;;;20.25;45.71;100802.30;2336278;75;50342;-74
2023/03/15 12:22:51;;;;;;;;;;;;;;;20.23;45.91;100799.27;2359244;75;22299;-74
2023/03/15 12:26:00;;;;;;;;;;;;;;;20.27;45.94;100791.67;2335634;75;50133;-74
2023/03/15 12:29:09;;;;;;;;;;;;;;;20.31;45.96;100789.42;2329812;75;51554;-74
2023/03/15 12:32:12;;;;;;;;;;;;;;;20.34;45.99;100791.21;2364196;75;51497;-75
2023/03/15 12:35:17;;;;;;;;;;;;;;;20.39;45.96;100805.42;2338224;75;50273;-75
2023/03/15 12:41:56;;;;;;;;;;;;;;;20.47;45.82;100801.26;2341017;75;22456;-74
2023/03/15 12:45:19;;;;;;;;;;;;;;;20.48;45.86;100802.95;2325496;75;50747;-74
2023/03/15 12:48:22;;;;;;;;;;;;;;;20.45;45.94;100801.98;2347138;75;51614;-74
2023/03/15 12:51:29;;;;;;;;;;;;;;;20.39;46.08;100812.97;2331077;75;49738;-74
2023/03/15 12:54:32;;;;;;;;;;;;;;;20.32;46.24;100809.41;2325307;75;50294;-74
2023/03/15 12:57:40;;;;;;;;;;;;;;;20.27;46.38;100817.20;2321447;76;49991;-74
2023/03/15 13:04:24;;;;;;;;;;;;;;;20.23;46.65;100817.25;2330801;75;24831;-72
2023/03/15 13:07:33;;;;;;;;;;;;;;;20.31;46.61;100821.67;2317113;75;22362;-74
2023/03/15 13:10:42;;;;;;;;;;;;;;;20.34;46.58;100822.63;2331535;75;51535;-74
2023/03/15 13:17:40;;;;;;;;;;;;;;;20.42;46.49;100811.27;2316900;75;22386;-73
2023/03/15 13:20:47;;;;;;;;;;;;;;;20.45;46.45;100819.46;2310432;75;50808;-74
2023/03/15 13:23:51;;;;;;;;;;;;;;;20.42;46.49;100823.84;2320473;76;22330;-74
2023/03/15 13:26:57;;;;;;;;;;;;;;;20.40;46.59;100828.61;2322386;75;50435;-75
2023/03/15 13:30:04;;;;;;;;;;;;;;;20.37;46.63;100828.48;2337993;75;50624;-74
2023/03/15 13:33:06;;;;;;;;;;;;;;;20.35;46.72;100829.69;2321858;76;22282;-74
2023/03/15 13:36:18;;;;;;;;;;;;;;;20.33;46.76;100829.04;2321509;76;51533;-75
2023/03/15 13:39:25;;;;;;;;;;;;;;;20.31;46.76;100827.88;2312517;75;22374;-74
2023/03/15 13:46:08;;;;;;;;;;;;;;;20.33;46.91;100823.67;2353157;75;22935;-74
2023/03/15 13:49:12;;;;;;;;;;;;;;;20.36;46.92;100820.59;2324017;75;50416;-75
2023/03/15 13:52:15;;;;;;;;;;;;;;;20.40;46.89;100827.27;2299087;76;51532;-74
2023/03/15 13:55:22;;;;;;;;;;;;;;;20.43;46.87;100829.56;2329021;75;23218;-74
2023/03/15 13:58:24;;;;;;;;;;;;;;;20.47;46.83;100841.58;2347589;75;51482;-74
2023/03/15 14:01:27;;;;;;;;;;;;;;;20.45;46.84;100862.47;2370027;75;50637;-73
2023/03/15 14:04:31;;;;;;;;;;;;;;;20.43;46.86;100877.42;2368082;75;50669;-73
2023/03/15 14:07:43;;;;;;;;;;;;;;;20.40;46.96;100886.39;2315959;76;22737;-74
2023/03/15 14:10:46;;;;;;;;;;;;;;;20.34;47.08;100889.30;2304577;77;23036;-74
2023/03/15 14:13:51;;;;;;;;;;;;;;;20.34;47.08;100890.64;2320840;75;51510;-75
2023/03/15 14:16:54;;;;;;;;;;;;;;;20.32;47.16;100890.02;2369994;75;51493;-75
2023/03/15 14:19:58;;;;;;;;;;;;;;;20.29;47.20;100882.83;2304710;75;50885;-74
2023/03/15 14:23:00;;;;;;;;;;;;;;;20.30;47.26;100881.31;2357766;75;50321;-74
2023/03/15 14:26:18;;;;;;;;;;;;;;;20.34;47.28;100880.41;2337450;75;52395;-74
2023/03/15 14:29:24;;;;;;;;;;;;;;;20.42;47.17;100886.52;2366889;75;52069;-75
2023/03/15 14:32:34;;;;;;;;;;;;;;;20.48;47.10;100884.92;2311941;76;22569;-74
2023/03/15 14:35:37;;;;;;;;;;;;;;;20.53;47.08;100877.64;2312786;77;50304;-74
2023/03/15 14:42:17;;;;;;;;;;;;;;;20.55;47.00;100872.43;2330757;75;22385;-74
2023/03/15 14:45:20;;;;;;;;;;;;;;;20.51;47.10;100866.24;2277929;75;51670;-74
2023/03/15 14:48:35;;;;;;;;;;;;;;;20.46;47.19;100877.55;2318675;75;23943;-74
2023/03/15 14:51:35;;;;;;;;;;;;;;;20.44;47.26;100875.56;2315016;75;24936;-73
2023/03/15 14:54:36;;;;;;;;;;;;;;;20.41;47.35;100871.92;2320734;76;22320;-74
2023/03/15 14:57:41;;;;;;;;;;;;;;;20.37;47.42;100871.96;2327518;75;50308;-74
2023/03/15 15:00:48;;;;;;;;;;;;;;;20.34;47.53;100873.17;2348291;75;50796;-74
2023/03/15 15:03:52;;;;;;;;;;;;;;;20.36;47.61;100869.80;2352534;75;50370;-73
2023/03/15 15:10:35;;;;;;;;;;;;;;;20.48;47.55;100866.11;2346548;75;22573;-73
2023/03/15 15:13:39;;;;;;;;;;;;;;;20.58;47.37;100870.70;2312011;76;52272;-73
2023/03/15 15:16:45;;;;;;;;;;;;;;;20.59;47.29;100872.87;2316197;75;51521;-74
2023/03/15 15:19:46;;;;;;;;;;;;;;;20.58;47.32;100879.28;2311001;76;22473;-75
2023/03/15 15:22:48;;;;;;;;;;;;;;;20.53;47.44;100877.13;2262203;75;51678;-74
2023/03/15 15:25:50;;;;;;;;;;;;;;;20.49;47.58;100885.75;2332799;75;50727;-74
2023/03/15 15:32:32;;;;;;;;;;;;;;;20.40;47.83;100894.45;2357228;75;23550;-74
2023/03/15 15:35:36;;;;;;;;;;;;;;;20.35;47.93;100890.98;2344071;75;51535;-75
2023/03/15 15:42:16;;;;;;;;;;;;;;;20.36;48.11;100897.19;2354596;75;23089;-74
2023/03/15 15:45:18;;;;;;;;;;;;;;;20.42;48.04;100904.48;2334181;75;51547;-74
2023/03/15 15:48:19;;;;;;;;;;;;;;;20.48;47.92;100905.09;2319453;75;52074;-74
2023/03/15 15:51:25;;;;;;;;;;;;;;;20.49;47.89;100912.12;2320880;76;51474;-74
2023/03/15 15:55:04;;;;;;;;;;;;;;;20.48;47.83;100908.30;2339699;75;22394;-75
2023/03/15 15:58:09;;;;;;;;;;;;;;;20.44;47.88;100911.33;2323781;75;52430;-74
2023/03/15 16:04:54;;;;;;;;;;;;;;;20.35;48.04;100925.09;2332011;75;22300;-74
2023/03/15 16:07:57;;;;;;;;;;;;;;;20.29;48.13;100924.48;2319223;76;51499;-74
2023/03/15 16:11:01;;;;;;;;;;;;;;;20.25;48.16;100925.89;2334582;75;51465;-74
2023/03/15 16:14:04;;;;;;;;;;;;;;;20.19;48.28;100933.69;2329953;75;22367;-74
2023/03/15 16:17:11;;;;;;;;;;;;;;;20.19;48.38;100942.23;2337089;75;50708;-73
2023/03/15 16:20:13;;;;;;;;;;;;;;;20.23;48.33;100970.41;2327663;75;51433;-73